sensor_id;sensor_type;location;lat;lon;timestamp;P1;P4;P2;P0;N10;N4;N25;N1;N05;TS
72225;SPS30;60130;52.250;5.048;2023-10-19T00:00:00;4.25;;4.25;;;;;;;
72225;SPS30;60130;52.250;5.048;2023-10-19T00:05:00;4.54;;4.52;;;;;;;
72225;SPS30;60130;52.250;5.048;2023-10-19T00:10:00;4.47;;4.46;;;;;;;
72225;SPS30;60130;52.250;5.048;2023-10-19T00:15:00;4.25;;4.25;;;;;;;
72225;SPS30;60130;52.250;5.048;2023-10-19T00:20:00;4.46;;4.46;;;;;;;
72225;SPS30;60130;52.250;5.048;2023-10-19T00:25:00;4.67;;4.63;;;;;;;
72225;SPS30;60130;52.250;5.048;2023-10-19T00:30:00;4.79;;4.77;;;;;;;
72225;SPS30;60130;52.250;5.048;2023-10-19T00:35:00;5.53;;5.41;;;;;;;
72225;SPS30;60130;52.250;5.048;2023-10-19T00:40:00;5.00;;5.00;;;;;;;
72225;SPS30;60130;52.250;5.048;2023-10-19T00:45:00;5.41;;5.41;;;;;;;
72225;SPS30;60130;52.250;5.048;2023-10-19T00:50:00;5.71;;5.65;;;;;;;
72225;SPS30;60130;52.250;5.048;2023-10-19T00:55:00;5.64;;5.62;;;;;;;
72225;SPS30;60130;52.250;5.048;2023-10-19T01:00:01;5.72;;5.69;;;;;;;
72225;SPS30;60130;52.250;5.048;2023-10-19T01:05:00;5.92;;5.77;;;;;;;
72225;SPS30;60130;52.250;5.048;2023-10-19T01:10:00;5.70;;5.66;;;;;;;
72225;SPS30;60130;52.250;5.048;2023-10-19T01:15:00;6.81;;6.72;;;;;;;
72225;SPS30;60130;52.250;5.048;2023-10-19T01:20:00;6.13;;6.11;;;;;;;
72225;SPS30;60130;52.250;5.048;2023-10-19T01:25:02;7.56;;7.55;;;;;;;
72225;SPS30;60130;52.250;5.048;2023-10-19T01:30:00;7.24;;7.17;;;;;;;
72225;SPS30;60130;52.250;5.048;2023-10-19T01:35:00;8.10;;8.05;;;;;;;
72225;SPS30;60130;52.250;5.048;2023-10-19T01:40:00;7.53;;7.46;;;;;;;
72225;SPS30;60130;52.250;5.048;2023-10-19T01:45:00;6.85;;6.62;;;;;;;
72225;SPS30;60130;52.250;5.048;2023-10-19T01:50:00;7.82;;7.80;;;;;;;
72225;SPS30;60130;52.250;5.048;2023-10-19T01:55:00;7.87;;7.87;;;;;;;
72225;SPS30;60130;52.250;5.048;2023-10-19T02:00:00;8.20;;8.10;;;;;;;
72225;SPS30;60130;52.250;5.048;2023-10-19T02:05:00;8.00;;7.89;;;;;;;
72225;SPS30;60130;52.250;5.048;2023-10-19T02:10:00;8.48;;8.32;;;;;;;
72225;SPS30;60130;52.250;5.048;2023-10-19T02:15:00;8.40;;8.29;;;;;;;
72225;SPS30;60130;52.250;5.048;2023-10-19T02:20:00;8.12;;8.07;;;;;;;
72225;SPS30;60130;52.250;5.048;2023-10-19T02:25:00;7.37;;7.33;;;;;;;
72225;SPS30;60130;52.250;5.048;2023-10-19T02:30:00;6.84;;6.82;;;;;;;
72225;SPS30;60130;52.250;5.048;2023-10-19T02:35:00;4.47;;4.40;;;;;;;
72225;SPS30;60130;52.250;5.048;2023-10-19T02:40:00;5.18;;5.13;;;;;;;
72225;SPS30;60130;52.250;5.048;2023-10-19T02:45:00;4.80;;4.74;;;;;;;
72225;SPS30;60130;52.250;5.048;2023-10-19T02:50:00;4.45;;4.38;;;;;;;
72225;SPS30;60130;52.250;5.048;2023-10-19T02:55:00;4.24;;4.20;;;;;;;
72225;SPS30;60130;52.250;5.048;2023-10-19T03:00:00;3.23;;3.22;;;;;;;
72225;SPS30;60130;52.250;5.048;2023-10-19T03:05:00;2.66;;2.64;;;;;;;
72225;SPS30;60130;52.250;5.048;2023-10-19T03:10:00;2.30;;2.30;;;;;;;
72225;SPS30;60130;52.250;5.048;2023-10-19T03:15:00;2.33;;2.33;;;;;;;
72225;SPS30;60130;52.250;5.048;2023-10-19T03:20:00;3.36;;3.33;;;;;;;
72225;SPS30;60130;52.250;5.048;2023-10-19T03:25:00;3.47;;3.43;;;;;;;
72225;SPS30;60130;52.250;5.048;2023-10-19T03:30:00;3.74;;3.71;;;;;;;
72225;SPS30;60130;52.250;5.048;2023-10-19T03:35:00;5.08;;5.03;;;;;;;
72225;SPS30;60130;52.250;5.048;2023-10-19T03:40:00;5.18;;5.16;;;;;;;
72225;SPS30;60130;52.250;5.048;2023-10-19T03:45:00;5.52;;5.47;;;;;;;
72225;SPS30;60130;52.250;5.048;2023-10-19T03:50:00;4.80;;4.79;;;;;;;
72225;SPS30;60130;52.250;5.048;2023-10-19T03:55:00;5.03;;5.03;;;;;;;
72225;SPS30;60130;52.250;5.048;2023-10-19T04:00:00;4.60;;4.54;;;;;;;
72225;SPS30;60130;52.250;5.048;2023-10-19T04:05:00;5.07;;5.05;;;;;;;
72225;SPS30;60130;52.250;5.048;2023-10-19T04:10:00;4.33;;4.33;;;;;;;
72225;SPS30;60130;52.250;5.048;2023-10-19T04:15:00;3.55;;3.53;;;;;;;
72225;SPS30;60130;52.250;5.048;2023-10-19T04:20:00;3.22;;3.20;;;;;;;
72225;SPS30;60130;52.250;5.048;2023-10-19T04:25:00;3.00;;2.99;;;;;;;
72225;SPS30;60130;52.250;5.048;2023-10-19T04:30:00;3.00;;2.97;;;;;;;
72225;SPS30;60130;52.250;5.048;2023-10-19T04:35:00;2.33;;2.31;;;;;;;
72225;SPS30;60130;52.250;5.048;2023-10-19T04:40:00;2.52;;2.50;;;;;;;
72225;SPS30;60130;52.250;5.048;2023-10-19T04:45:00;2.28;;2.26;;;;;;;
72225;SPS30;60130;52.250;5.048;2023-10-19T04:50:00;1.56;;1.55;;;;;;;
72225;SPS30;60130;52.250;5.048;2023-10-19T04:55:00;1.68;;1.68;;;;;;;
72225;SPS30;60130;52.250;5.048;2023-10-19T05:00:00;1.28;;1.28;;;;;;;
72225;SPS30;60130;52.250;5.048;2023-10-19T05:05:00;1.68;;1.67;;;;;;;
72225;SPS30;60130;52.250;5.048;2023-10-19T05:10:00;1.20;;1.19;;;;;;;
72225;SPS30;60130;52.250;5.048;2023-10-19T05:15:00;1.26;;1.26;;;;;;;
72225;SPS30;60130;52.250;5.048;2023-10-19T05:20:00;1.20;;1.20;;;;;;;
72225;SPS30;60130;52.250;5.048;2023-10-19T05:25:00;1.14;;1.14;;;;;;;
72225;SPS30;60130;52.250;5.048;2023-10-19T05:30:00;0.80;;0.80;;;;;;;
72225;SPS30;60130;52.250;5.048;2023-10-19T05:35:00;0.58;;0.58;;;;;;;
72225;SPS30;60130;52.250;5.048;2023-10-19T05:40:00;1.16;;1.14;;;;;;;
72225;SPS30;60130;52.250;5.048;2023-10-19T05:45:00;0.69;;0.68;;;;;;;
72225;SPS30;60130;52.250;5.048;2023-10-19T05:50:00;0.93;;0.90;;;;;;;
72225;SPS30;60130;52.250;5.048;2023-10-19T05:55:00;1.19;;1.15;;;;;;;
72225;SPS30;60130;52.250;5.048;2023-10-19T06:00:00;1.11;;1.07;;;;;;;
72225;SPS30;60130;52.250;5.048;2023-10-19T06:05:00;1.06;;1.02;;;;;;;
72225;SPS30;60130;52.250;5.048;2023-10-19T06:10:00;0.93;;0.88;;;;;;;
72225;SPS30;60130;52.250;5.048;2023-10-19T06:15:00;1.00;;0.93;;;;;;;
72225;SPS30;60130;52.250;5.048;2023-10-19T06:20:00;0.80;;0.76;;;;;;;
72225;SPS30;60130;52.250;5.048;2023-10-19T06:25:00;0.95;;0.90;;;;;;;
72225;SPS30;60130;52.250;5.048;2023-10-19T06:30:00;0.82;;0.78;;;;;;;
72225;SPS30;60130;52.250;5.048;2023-10-19T06:35:00;1.20;;1.14;;;;;;;
72225;SPS30;60130;52.250;5.048;2023-10-19T06:40:00;0.85;;0.81;;;;;;;
72225;SPS30;60130;52.250;5.048;2023-10-19T06:45:00;0.71;;0.66;;;;;;;
72225;SPS30;60130;52.250;5.048;2023-10-19T06:50:00;0.63;;0.59;;;;;;;
72225;SPS30;60130;52.250;5.048;2023-10-19T06:55:00;0.88;;0.82;;;;;;;
72225;SPS30;60130;52.250;5.048;2023-10-19T07:00:00;1.14;;1.07;;;;;;;
72225;SPS30;60130;52.250;5.048;2023-10-19T07:05:00;0.84;;0.79;;;;;;;
72225;SPS30;60130;52.250;5.048;2023-10-19T07:10:00;1.20;;1.16;;;;;;;
72225;SPS30;60130;52.250;5.048;2023-10-19T07:15:00;1.13;;1.08;;;;;;;
72225;SPS30;60130;52.250;5.048;2023-10-19T07:20:00;0.91;;0.88;;;;;;;
72225;SPS30;60130;52.250;5.048;2023-10-19T07:25:00;1.04;;1.01;;;;;;;
72225;SPS30;60130;52.250;5.048;2023-10-19T07:30:00;1.26;;1.21;;;;;;;
72225;SPS30;60130;52.250;5.048;2023-10-19T07:35:00;0.80;;0.77;;;;;;;
72225;SPS30;60130;52.250;5.048;2023-10-19T07:40:00;1.05;;0.99;;;;;;;
72225;SPS30;60130;52.250;5.048;2023-10-19T07:45:00;1.36;;1.29;;;;;;;
72225;SPS30;60130;52.250;5.048;2023-10-19T07:50:00;1.52;;1.44;;;;;;;
72225;SPS30;60130;52.250;5.048;2023-10-19T07:55:00;1.93;;1.85;;;;;;;
72225;SPS30;60130;52.250;5.048;2023-10-19T08:00:00;0.81;;0.77;;;;;;;
72225;SPS30;60130;52.250;5.048;2023-10-19T08:05:00;1.08;;1.04;;;;;;;
72225;SPS30;60130;52.250;5.048;2023-10-19T08:10:00;0.71;;0.68;;;;;;;
72225;SPS30;60130;52.250;5.048;2023-10-19T08:15:00;0.98;;0.94;;;;;;;
72225;SPS30;60130;52.250;5.048;2023-10-19T08:20:00;0.97;;0.94;;;;;;;
72225;SPS30;60130;52.250;5.048;2023-10-19T08:25:00;1.05;;1.02;;;;;;;
72225;SPS30;60130;52.250;5.048;2023-10-19T08:30:00;1.00;;0.97;;;;;;;
72225;SPS30;60130;52.250;5.048;2023-10-19T08:35:00;1.22;;1.19;;;;;;;
72225;SPS30;60130;52.250;5.048;2023-10-19T08:40:00;1.11;;1.08;;;;;;;
72225;SPS30;60130;52.250;5.048;2023-10-19T08:45:00;1.39;;1.33;;;;;;;
72225;SPS30;60130;52.250;5.048;2023-10-19T08:50:00;1.19;;1.13;;;;;;;
72225;SPS30;60130;52.250;5.048;2023-10-19T08:55:00;1.24;;1.11;;;;;;;
72225;SPS30;60130;52.250;5.048;2023-10-19T09:00:00;1.37;;1.26;;;;;;;
72225;SPS30;60130;52.250;5.048;2023-10-19T09:05:05;1.24;;1.15;;;;;;;
72225;SPS30;60130;52.250;5.048;2023-10-19T09:10:00;1.67;;1.50;;;;;;;
72225;SPS30;60130;52.250;5.048;2023-10-19T09:15:00;1.34;;1.19;;;;;;;
72225;SPS30;60130;52.250;5.048;2023-10-19T09:20:00;1.30;;1.20;;;;;;;
72225;SPS30;60130;52.250;5.048;2023-10-19T09:25:00;1.58;;1.48;;;;;;;
72225;SPS30;60130;52.250;5.048;2023-10-19T09:30:00;1.18;;1.10;;;;;;;
72225;SPS30;60130;52.250;5.048;2023-10-19T09:35:00;1.48;;1.40;;;;;;;
72225;SPS30;60130;52.250;5.048;2023-10-19T09:40:00;1.79;;1.70;;;;;;;
72225;SPS30;60130;52.250;5.048;2023-10-19T09:45:00;1.75;;1.62;;;;;;;
72225;SPS30;60130;52.250;5.048;2023-10-19T09:50:00;1.40;;1.28;;;;;;;
72225;SPS30;60130;52.250;5.048;2023-10-19T09:55:00;1.61;;1.50;;;;;;;
72225;SPS30;60130;52.250;5.048;2023-10-19T10:00:02;1.24;;1.16;;;;;;;
72225;SPS30;60130;52.250;5.048;2023-10-19T10:05:00;1.54;;1.42;;;;;;;
72225;SPS30;60130;52.250;5.048;2023-10-19T10:10:00;1.47;;1.36;;;;;;;
72225;SPS30;60130;52.250;5.048;2023-10-19T10:15:00;1.75;;1.59;;;;;;;
72225;SPS30;60130;52.250;5.048;2023-10-19T10:25:00;1.36;;1.28;;;;;;;
72225;SPS30;60130;52.250;5.048;2023-10-19T10:30:00;1.44;;1.32;;;;;;;
72225;SPS30;60130;52.250;5.048;2023-10-19T10:35:00;1.69;;1.56;;;;;;;
72225;SPS30;60130;52.250;5.048;2023-10-19T10:40:00;1.79;;1.70;;;;;;;
72225;SPS30;60130;52.250;5.048;2023-10-19T10:45:00;1.28;;1.21;;;;;;;
72225;SPS30;60130;52.250;5.048;2023-10-19T10:50:00;1.41;;1.34;;;;;;;
72225;SPS30;60130;52.250;5.048;2023-10-19T10:55:05;1.52;;1.43;;;;;;;
72225;SPS30;60130;52.250;5.048;2023-10-19T11:00:00;1.49;;1.37;;;;;;;
72225;SPS30;60130;52.250;5.048;2023-10-19T11:05:00;1.89;;1.76;;;;;;;
72225;SPS30;60130;52.250;5.048;2023-10-19T11:10:00;1.53;;1.41;;;;;;;
72225;SPS30;60130;52.250;5.048;2023-10-19T11:15:00;1.59;;1.43;;;;;;;
72225;SPS30;60130;52.250;5.048;2023-10-19T11:20:00;1.51;;1.33;;;;;;;
72225;SPS30;60130;52.250;5.048;2023-10-19T11:30:00;1.44;;1.30;;;;;;;
72225;SPS30;60130;52.250;5.048;2023-10-19T11:35:00;1.85;;1.72;;;;;;;
72225;SPS30;60130;52.250;5.048;2023-10-19T11:40:00;1.44;;1.34;;;;;;;
72225;SPS30;60130;52.250;5.048;2023-10-19T11:45:00;1.94;;1.79;;;;;;;
72225;SPS30;60130;52.250;5.048;2023-10-19T11:50:00;1.66;;1.51;;;;;;;
72225;SPS30;60130;52.250;5.048;2023-10-19T11:55:00;1.47;;1.33;;;;;;;
72225;SPS30;60130;52.250;5.048;2023-10-19T12:00:00;1.28;;1.19;;;;;;;
72225;SPS30;60130;52.250;5.048;2023-10-19T12:05:01;1.13;;1.04;;;;;;;
72225;SPS30;60130;52.250;5.048;2023-10-19T12:10:00;1.59;;1.38;;;;;;;
72225;SPS30;60130;52.250;5.048;2023-10-19T12:15:00;2.16;;1.84;;;;;;;
72225;SPS30;60130;52.250;5.048;2023-10-19T12:20:00;2.12;;1.79;;;;;;;
72225;SPS30;60130;52.250;5.048;2023-10-19T12:25:00;2.03;;1.67;;;;;;;
72225;SPS30;60130;52.250;5.048;2023-10-19T12:30:00;2.01;;1.64;;;;;;;
72225;SPS30;60130;52.250;5.048;2023-10-19T12:35:00;1.97;;1.66;;;;;;;
72225;SPS30;60130;52.250;5.048;2023-10-19T12:40:00;1.54;;1.30;;;;;;;
72225;SPS30;60130;52.250;5.048;2023-10-19T12:45:00;1.46;;1.26;;;;;;;
72225;SPS30;60130;52.250;5.048;2023-10-19T12:50:00;1.57;;1.43;;;;;;;
72225;SPS30;60130;52.250;5.048;2023-10-19T12:55:00;1.49;;1.33;;;;;;;
72225;SPS30;60130;52.250;5.048;2023-10-19T13:00:00;1.29;;1.14;;;;;;;
72225;SPS30;60130;52.250;5.048;2023-10-19T13:05:00;1.41;;1.23;;;;;;;
72225;SPS30;60130;52.250;5.048;2023-10-19T13:10:00;1.83;;1.66;;;;;;;
72225;SPS30;60130;52.250;5.048;2023-10-19T13:15:00;1.73;;1.53;;;;;;;
72225;SPS30;60130;52.250;5.048;2023-10-19T13:20:00;2.10;;1.84;;;;;;;
72225;SPS30;60130;52.250;5.048;2023-10-19T13:25:00;1.84;;1.57;;;;;;;
72225;SPS30;60130;52.250;5.048;2023-10-19T13:30:00;1.78;;1.55;;;;;;;
72225;SPS30;60130;52.250;5.048;2023-10-19T13:35:00;1.51;;1.32;;;;;;;
72225;SPS30;60130;52.250;5.048;2023-10-19T13:40:00;1.42;;1.24;;;;;;;
72225;SPS30;60130;52.250;5.048;2023-10-19T13:45:01;1.61;;1.45;;;;;;;
72225;SPS30;60130;52.250;5.048;2023-10-19T13:50:00;1.10;;0.99;;;;;;;
72225;SPS30;60130;52.250;5.048;2023-10-19T13:55:00;1.53;;1.36;;;;;;;
72225;SPS30;60130;52.250;5.048;2023-10-19T14:00:00;1.63;;1.43;;;;;;;
72225;SPS30;60130;52.250;5.048;2023-10-19T14:05:00;1.82;;1.63;;;;;;;
72225;SPS30;60130;52.250;5.048;2023-10-19T14:10:00;1.84;;1.61;;;;;;;
72225;SPS30;60130;52.250;5.048;2023-10-19T14:15:00;2.60;;2.24;;;;;;;
72225;SPS30;60130;52.250;5.048;2023-10-19T14:20:00;1.91;;1.73;;;;;;;
72225;SPS30;60130;52.250;5.048;2023-10-19T14:25:00;2.00;;1.85;;;;;;;
72225;SPS30;60130;52.250;5.048;2023-10-19T14:30:00;2.01;;1.90;;;;;;;
72225;SPS30;60130;52.250;5.048;2023-10-19T14:35:00;2.11;;1.96;;;;;;;
72225;SPS30;60130;52.250;5.048;2023-10-19T14:40:00;1.51;;1.44;;;;;;;
72225;SPS30;60130;52.250;5.048;2023-10-19T14:45:00;2.07;;2.00;;;;;;;
72225;SPS30;60130;52.250;5.048;2023-10-19T14:50:00;1.64;;1.58;;;;;;;
72225;SPS30;60130;52.250;5.048;2023-10-19T14:55:00;2.00;;1.92;;;;;;;
72225;SPS30;60130;52.250;5.048;2023-10-19T15:00:00;1.72;;1.63;;;;;;;
72225;SPS30;60130;52.250;5.048;2023-10-19T15:05:00;2.14;;1.97;;;;;;;
72225;SPS30;60130;52.250;5.048;2023-10-19T15:10:02;1.50;;1.37;;;;;;;
72225;SPS30;60130;52.250;5.048;2023-10-19T15:15:00;1.59;;1.45;;;;;;;
72225;SPS30;60130;52.250;5.048;2023-10-19T15:20:00;1.68;;1.55;;;;;;;
72225;SPS30;60130;52.250;5.048;2023-10-19T15:25:00;1.65;;1.53;;;;;;;
72225;SPS30;60130;52.250;5.048;2023-10-19T15:30:00;1.55;;1.43;;;;;;;
72225;SPS30;60130;52.250;5.048;2023-10-19T15:35:00;1.16;;1.08;;;;;;;
72225;SPS30;60130;52.250;5.048;2023-10-19T15:40:00;2.18;;1.99;;;;;;;
72225;SPS30;60130;52.250;5.048;2023-10-19T15:45:00;2.21;;1.92;;;;;;;
72225;SPS30;60130;52.250;5.048;2023-10-19T15:50:00;1.76;;1.59;;;;;;;
72225;SPS30;60130;52.250;5.048;2023-10-19T15:55:00;1.89;;1.75;;;;;;;
72225;SPS30;60130;52.250;5.048;2023-10-19T16:00:00;2.04;;1.84;;;;;;;
72225;SPS30;60130;52.250;5.048;2023-10-19T16:05:00;1.83;;1.67;;;;;;;
72225;SPS30;60130;52.250;5.048;2023-10-19T16:10:00;1.97;;1.80;;;;;;;
72225;SPS30;60130;52.250;5.048;2023-10-19T16:15:00;1.84;;1.68;;;;;;;
72225;SPS30;60130;52.250;5.048;2023-10-19T16:20:00;2.23;;2.06;;;;;;;
72225;SPS30;60130;52.250;5.048;2023-10-19T16:25:00;2.01;;1.84;;;;;;;
72225;SPS30;60130;52.250;5.048;2023-10-19T16:30:00;2.29;;2.08;;;;;;;
72225;SPS30;60130;52.250;5.048;2023-10-19T16:35:00;2.39;;2.22;;;;;;;
72225;SPS30;60130;52.250;5.048;2023-10-19T16:40:00;2.26;;2.08;;;;;;;
72225;SPS30;60130;52.250;5.048;2023-10-19T16:45:00;2.52;;2.31;;;;;;;
72225;SPS30;60130;52.250;5.048;2023-10-19T16:50:00;1.62;;1.54;;;;;;;
72225;SPS30;60130;52.250;5.048;2023-10-19T16:55:00;2.84;;2.60;;;;;;;
72225;SPS30;60130;52.250;5.048;2023-10-19T17:00:00;2.60;;2.49;;;;;;;
72225;SPS30;60130;52.250;5.048;2023-10-19T17:05:00;2.13;;2.06;;;;;;;
72225;SPS30;60130;52.250;5.048;2023-10-19T17:10:00;2.27;;2.15;;;;;;;
72225;SPS30;60130;52.250;5.048;2023-10-19T17:15:00;2.39;;2.27;;;;;;;
72225;SPS30;60130;52.250;5.048;2023-10-19T17:20:00;1.93;;1.84;;;;;;;
72225;SPS30;60130;52.250;5.048;2023-10-19T17:25:00;1.94;;1.89;;;;;;;
72225;SPS30;60130;52.250;5.048;2023-10-19T17:30:00;2.44;;2.38;;;;;;;
72225;SPS30;60130;52.250;5.048;2023-10-19T17:35:00;2.12;;2.07;;;;;;;
72225;SPS30;60130;52.250;5.048;2023-10-19T17:40:00;2.55;;2.52;;;;;;;
72225;SPS30;60130;52.250;5.048;2023-10-19T17:45:00;2.39;;2.30;;;;;;;
72225;SPS30;60130;52.250;5.048;2023-10-19T17:50:00;2.42;;2.35;;;;;;;
72225;SPS30;60130;52.250;5.048;2023-10-19T17:55:00;2.11;;2.06;;;;;;;
72225;SPS30;60130;52.250;5.048;2023-10-19T18:00:00;2.84;;2.77;;;;;;;
72225;SPS30;60130;52.250;5.048;2023-10-19T18:05:00;2.34;;2.28;;;;;;;
72225;SPS30;60130;52.250;5.048;2023-10-19T18:10:00;2.06;;2.01;;;;;;;
72225;SPS30;60130;52.250;5.048;2023-10-19T18:15:00;2.52;;2.48;;;;;;;
72225;SPS30;60130;52.250;5.048;2023-10-19T18:20:00;3.26;;3.23;;;;;;;
72225;SPS30;60130;52.250;5.048;2023-10-19T18:25:00;3.32;;3.24;;;;;;;
72225;SPS30;60130;52.250;5.048;2023-10-19T18:30:00;3.05;;2.97;;;;;;;
72225;SPS30;60130;52.250;5.048;2023-10-19T18:35:00;3.42;;3.32;;;;;;;
72225;SPS30;60130;52.250;5.048;2023-10-19T18:40:00;3.73;;3.61;;;;;;;
72225;SPS30;60130;52.250;5.048;2023-10-19T18:45:01;3.72;;3.65;;;;;;;
72225;SPS30;60130;52.250;5.048;2023-10-19T18:50:00;3.68;;3.65;;;;;;;
72225;SPS30;60130;52.250;5.048;2023-10-19T18:55:00;4.06;;3.99;;;;;;;
72225;SPS30;60130;52.250;5.048;2023-10-19T19:00:00;4.46;;4.33;;;;;;;
72225;SPS30;60130;52.250;5.048;2023-10-19T19:05:00;3.32;;3.23;;;;;;;
72225;SPS30;60130;52.250;5.048;2023-10-19T19:10:00;4.20;;4.12;;;;;;;
72225;SPS30;60130;52.250;5.048;2023-10-19T19:15:00;5.00;;4.84;;;;;;;
72225;SPS30;60130;52.250;5.048;2023-10-19T19:20:00;4.61;;4.52;;;;;;;
72225;SPS30;60130;52.250;5.048;2023-10-19T19:25:00;4.78;;4.72;;;;;;;
72225;SPS30;60130;52.250;5.048;2023-10-19T19:30:00;4.28;;4.28;;;;;;;
72225;SPS30;60130;52.250;5.048;2023-10-19T19:35:00;4.55;;4.42;;;;;;;
72225;SPS30;60130;52.250;5.048;2023-10-19T19:40:00;4.40;;4.36;;;;;;;
72225;SPS30;60130;52.250;5.048;2023-10-19T19:45:00;4.31;;4.25;;;;;;;
72225;SPS30;60130;52.250;5.048;2023-10-19T19:50:00;4.54;;4.47;;;;;;;
72225;SPS30;60130;52.250;5.048;2023-10-19T19:55:00;5.04;;5.00;;;;;;;
72225;SPS30;60130;52.250;5.048;2023-10-19T20:00:00;6.20;;6.07;;;;;;;
72225;SPS30;60130;52.250;5.048;2023-10-19T20:05:00;6.40;;6.35;;;;;;;
72225;SPS30;60130;52.250;5.048;2023-10-19T20:10:00;6.34;;6.25;;;;;;;
72225;SPS30;60130;52.250;5.048;2023-10-19T20:15:00;6.20;;6.20;;;;;;;
72225;SPS30;60130;52.250;5.048;2023-10-19T20:20:00;7.37;;7.10;;;;;;;
72225;SPS30;60130;52.250;5.048;2023-10-19T20:25:00;7.22;;7.09;;;;;;;
72225;SPS30;60130;52.250;5.048;2023-10-19T20:30:00;7.70;;7.56;;;;;;;
72225;SPS30;60130;52.250;5.048;2023-10-19T20:35:00;7.28;;7.15;;;;;;;
72225;SPS30;60130;52.250;5.048;2023-10-19T20:40:00;8.14;;7.83;;;;;;;
72225;SPS30;60130;52.250;5.048;2023-10-19T20:45:00;6.90;;6.73;;;;;;;
72225;SPS30;60130;52.250;5.048;2023-10-19T20:50:00;5.65;;5.58;;;;;;;
72225;SPS30;60130;52.250;5.048;2023-10-19T20:55:00;5.80;;5.67;;;;;;;
72225;SPS30;60130;52.250;5.048;2023-10-19T21:00:00;6.23;;6.07;;;;;;;
72225;SPS30;60130;52.250;5.048;2023-10-19T21:05:00;6.17;;6.07;;;;;;;
72225;SPS30;60130;52.250;5.048;2023-10-19T21:10:00;6.39;;6.14;;;;;;;
72225;SPS30;60130;52.250;5.048;2023-10-19T21:15:00;6.55;;6.35;;;;;;;
72225;SPS30;60130;52.250;5.048;2023-10-19T21:20:00;6.06;;5.93;;;;;;;
72225;SPS30;60130;52.250;5.048;2023-10-19T21:25:00;6.90;;6.75;;;;;;;
72225;SPS30;60130;52.250;5.048;2023-10-19T21:30:00;7.22;;7.05;;;;;;;
72225;SPS30;60130;52.250;5.048;2023-10-19T21:35:00;7.33;;7.17;;;;;;;
72225;SPS30;60130;52.250;5.048;2023-10-19T21:40:00;7.79;;7.57;;;;;;;
72225;SPS30;60130;52.250;5.048;2023-10-19T21:45:00;7.21;;7.04;;;;;;;
72225;SPS30;60130;52.250;5.048;2023-10-19T21:50:00;8.34;;8.16;;;;;;;
72225;SPS30;60130;52.250;5.048;2023-10-19T21:55:00;9.29;;9.05;;;;;;;
72225;SPS30;60130;52.250;5.048;2023-10-19T22:00:00;7.79;;7.60;;;;;;;
72225;SPS30;60130;52.250;5.048;2023-10-19T22:05:00;8.80;;8.41;;;;;;;
72225;SPS30;60130;52.250;5.048;2023-10-19T22:10:00;9.38;;8.94;;;;;;;
72225;SPS30;60130;52.250;5.048;2023-10-19T22:15:00;9.08;;8.82;;;;;;;
72225;SPS30;60130;52.250;5.048;2023-10-19T22:20:00;8.84;;8.58;;;;;;;
72225;SPS30;60130;52.250;5.048;2023-10-19T22:25:00;8.94;;8.77;;;;;;;
72225;SPS30;60130;52.250;5.048;2023-10-19T22:30:00;9.66;;9.09;;;;;;;
72225;SPS30;60130;52.250;5.048;2023-10-19T22:35:00;9.78;;9.47;;;;;;;
72225;SPS30;60130;52.250;5.048;2023-10-19T22:40:00;8.89;;8.62;;;;;;;
72225;SPS30;60130;52.250;5.048;2023-10-19T22:45:00;9.24;;8.92;;;;;;;
72225;SPS30;60130;52.250;5.048;2023-10-19T22:50:00;9.42;;9.18;;;;;;;
72225;SPS30;60130;52.250;5.048;2023-10-19T22:55:00;9.52;;9.17;;;;;;;
72225;SPS30;60130;52.250;5.048;2023-10-19T23:00:00;9.21;;9.03;;;;;;;
72225;SPS30;60130;52.250;5.048;2023-10-19T23:05:00;10.16;;9.95;;;;;;;
72225;SPS30;60130;52.250;5.048;2023-10-19T23:10:00;10.67;;10.30;;;;;;;
72225;SPS30;60130;52.250;5.048;2023-10-19T23:15:00;9.94;;9.70;;;;;;;
72225;SPS30;60130;52.250;5.048;2023-10-19T23:20:00;9.47;;9.30;;;;;;;
72225;SPS30;60130;52.250;5.048;2023-10-19T23:25:00;12.33;;11.64;;;;;;;
72225;SPS30;60130;52.250;5.048;2023-10-19T23:30:00;10.58;;10.17;;;;;;;
72225;SPS30;60130;52.250;5.048;2023-10-19T23:35:00;10.47;;10.23;;;;;;;
72225;SPS30;60130;52.250;5.048;2023-10-19T23:40:00;12.45;;11.84;;;;;;;
72225;SPS30;60130;52.250;5.048;2023-10-19T23:45:00;12.81;;12.44;;;;;;;
72225;SPS30;60130;52.250;5.048;2023-10-19T23:50:00;13.88;;13.17;;;;;;;
72225;SPS30;60130;52.250;5.048;2023-10-19T23:55:00;13.59;;12.90;;;;;;;
